Time;durP1;ratioP1;P1;durP2;ratioP2;P2;SDS_P1;SDS_P2;PMS_P1;PMS_P2;Temp;Humidity;BMP_temperature;BMP_pressure;BME280_temperature;BME280_humidity;BME280_pressure;Samples;Min_cycle;Max_cycle;Signal;HPM_P1;HPM_P2
2021/10/22 00:00:20;;;;;;;13.25;2.00;;;6.10;99.90;;;;;;12308436;28;20467;-87
2021/10/22 00:06:22;;;;;;;15.38;1.92;;;6.10;99.90;;;;;;12340318;28;20479;-87
2021/10/22 00:12:24;;;;;;;12.05;1.65;;;6.00;99.90;;;;;;12300428;28;20049;-86
2021/10/22 00:18:26;;;;;;;14.80;2.67;;;6.00;99.90;;;;;;12303349;28;20055;-86
2021/10/22 00:24:28;;;;;;;14.98;2.00;;;6.00;99.90;;;;;;12303040;28;20146;-87
2021/10/22 00:30:30;;;;;;;12.73;2.70;;;6.00;99.90;;;;;;12291178;28;20454;-87
2021/10/22 00:36:32;;;;;;;10.57;1.73;;;5.90;99.90;;;;;;12296340;28;20138;-87
2021/10/22 00:42:34;;;;;;;12.02;2.10;;;5.90;99.90;;;;;;12295677;28;20479;-87
2021/10/22 00:48:36;;;;;;;11.95;2.10;;;5.90;99.90;;;;;;12305284;28;20530;-87
2021/10/22 00:54:38;;;;;;;10.05;1.80;;;5.90;99.90;;;;;;12332878;28;20173;-86
2021/10/22 01:00:40;;;;;;;11.68;2.35;;;5.80;99.90;;;;;;12301719;28;20054;-87
2021/10/22 01:06:43;;;;;;;9.68;2.10;;;5.80;99.90;;;;;;12304497;28;20303;-88
2021/10/22 01:12:45;;;;;;;7.43;1.70;;;5.80;99.90;;;;;;12293706;28;20140;-86
2021/10/22 01:18:47;;;;;;;11.00;1.90;;;5.80;99.90;;;;;;12299936;28;21146;-87
2021/10/22 01:24:49;;;;;;;7.25;1.77;;;5.80;99.90;;;;;;12337156;28;20046;-87
2021/10/22 01:30:52;;;;;;;15.90;1.67;;;5.80;99.90;;;;;;12301588;28;20094;-87
2021/10/22 01:36:53;;;;;;;9.77;1.95;;;5.90;99.90;;;;;;12298391;28;20079;-86
2021/10/22 01:42:55;;;;;;;9.73;1.70;;;5.90;99.90;;;;;;12307816;28;20507;-87
2021/10/22 01:48:57;;;;;;;10.15;2.20;;;6.00;99.90;;;;;;12295693;28;20074;-87
2021/10/22 01:55:00;;;;;;;16.73;3.47;;;6.00;99.90;;;;;;12301725;28;20043;-86
2021/10/22 02:01:02;;;;;;;10.77;2.40;;;6.10;99.90;;;;;;12302765;28;20077;-86
2021/10/22 02:07:04;;;;;;;8.43;1.70;;;6.00;99.90;;;;;;12299210;28;20047;-87
2021/10/22 02:13:05;;;;;;;14.02;2.08;;;6.00;99.90;;;;;;12310356;28;20047;-86
2021/10/22 02:19:07;;;;;;;10.57;1.95;;;6.00;99.90;;;;;;12293604;28;20142;-87
2021/10/22 02:25:09;;;;;;;8.38;1.90;;;6.00;99.90;;;;;;12301805;28;20141;-87
2021/10/22 02:31:11;;;;;;;10.63;2.30;;;6.00;99.90;;;;;;12300201;28;20054;-86
2021/10/22 02:37:13;;;;;;;17.58;2.35;;;6.10;99.90;;;;;;12302093;28;20097;-87
2021/10/22 02:43:17;;;;;;;20.25;3.08;;;6.20;99.90;;;;;;12294164;28;20100;-88
2021/10/22 02:49:19;;;;;;;10.63;1.90;;;6.10;99.90;;;;;;12293779;28;20139;-86
2021/10/22 02:55:21;;;;;;;14.38;2.65;;;6.10;99.90;;;;;;12332153;28;20474;-87
2021/10/22 03:01:23;;;;;;;12.30;2.47;;;6.00;99.90;;;;;;12309886;28;20137;-84
2021/10/22 03:07:25;;;;;;;12.82;2.83;;;6.00;99.90;;;;;;12306613;28;20086;-86
2021/10/22 03:13:27;;;;;;;10.38;2.45;;;6.10;99.90;;;;;;12315012;28;20117;-86
2021/10/22 03:19:29;;;;;;;12.88;2.25;;;6.00;99.90;;;;;;12304751;28;20071;-87
2021/10/22 03:25:32;;;;;;;10.48;2.45;;;6.00;99.90;;;;;;12304699;28;20145;-87
2021/10/22 03:31:35;;;;;;;16.20;2.72;;;6.10;99.90;;;;;;12306496;28;20557;-87
2021/10/22 03:37:36;;;;;;;11.73;2.65;;;6.10;99.90;;;;;;12309128;28;20046;-87
2021/10/22 03:43:38;;;;;;;10.48;2.40;;;6.10;99.90;;;;;;12303603;28;20097;-86
2021/10/22 03:49:40;;;;;;;13.50;2.75;;;6.20;99.90;;;;;;12302134;28;20602;-86
2021/10/22 03:55:42;;;;;;;13.68;2.67;;;6.30;99.90;;;;;;12307951;28;20049;-87
2021/10/22 04:01:45;;;;;;;16.15;2.88;;;6.30;99.90;;;;;;12313563;28;20043;-86
2021/10/22 04:07:47;;;;;;;10.75;2.50;;;6.30;99.90;;;;;;12328187;28;20058;-86
2021/10/22 04:13:49;;;;;;;13.57;2.65;;;6.30;99.90;;;;;;12320010;28;20042;-86
2021/10/22 04:19:51;;;;;;;11.60;2.78;;;6.30;99.90;;;;;;12307173;28;20042;-88
2021/10/22 04:25:54;;;;;;;13.95;3.58;;;6.20;99.90;;;;;;12308353;28;20050;-87
2021/10/22 04:31:56;;;;;;;9.20;2.80;;;6.20;99.90;;;;;;12310005;28;20054;-86
2021/10/22 04:44:00;;;;;;;11.88;3.00;;;6.20;99.90;;;;;;12317284;28;20062;-88
2021/10/22 04:50:03;;;;;;;9.75;2.45;;;6.30;99.90;;;;;;12313011;28;20100;-87
2021/10/22 04:56:05;;;;;;;10.70;2.55;;;6.40;99.90;;;;;;12313373;28;20057;-87
2021/10/22 05:02:07;;;;;;;12.55;2.50;;;6.40;99.90;;;;;;12340593;28;20043;-88
2021/10/22 05:08:10;;;;;;;10.98;2.90;;;6.40;99.90;;;;;;12312109;28;20053;-87
2021/10/22 05:14:11;;;;;;;15.50;2.90;;;6.40;99.90;;;;;;12309140;28;20050;-86
2021/10/22 05:20:13;;;;;;;11.25;2.63;;;6.30;99.90;;;;;;12332248;28;20453;-87
2021/10/22 05:26:17;;;;;;;12.20;2.40;;;6.30;99.90;;;;;;12312690;28;20495;-86
2021/10/22 05:32:19;;;;;;;11.30;2.60;;;6.30;99.90;;;;;;12317782;28;20122;-86
2021/10/22 05:38:21;;;;;;;11.73;2.45;;;6.40;99.90;;;;;;12323495;28;20051;-87
2021/10/22 05:44:24;;;;;;;14.93;2.55;;;6.30;99.90;;;;;;12303792;28;20766;-84
2021/10/22 05:50:25;;;;;;;13.57;2.30;;;6.30;99.90;;;;;;12314702;28;20046;-86
2021/10/22 05:56:27;;;;;;;14.43;2.60;;;6.40;99.90;;;;;;12309053;28;20081;-83
2021/10/22 06:02:29;;;;;;;11.68;2.40;;;6.40;99.90;;;;;;12306924;28;20706;-85
2021/10/22 06:08:31;;;;;;;14.98;2.47;;;6.50;99.90;;;;;;12306731;28;20051;-86
2021/10/22 06:14:35;;;;;;;12.68;2.58;;;6.50;99.90;;;;;;12310314;28;20043;-86
2021/10/22 06:26:45;;;;;;;9.73;2.05;;;6.60;99.90;;;;;;12309054;28;20137;-85
2021/10/22 06:32:46;;;;;;;12.80;2.50;;;6.60;99.90;;;;;;12310143;28;20051;-85
2021/10/22 06:38:48;;;;;;;11.55;2.50;;;6.60;99.90;;;;;;12310688;28;20101;-87
2021/10/22 06:44:50;;;;;;;7.47;2.00;;;6.70;99.90;;;;;;12304249;28;20467;-86
2021/10/22 06:50:52;;;;;;;17.08;3.38;;;6.90;99.90;;;;;;12302915;28;20050;-86
2021/10/22 06:56:55;;;;;;;11.27;2.10;;;6.90;99.90;;;;;;12321288;28;20047;-85
2021/10/22 07:02:57;;;;;;;13.40;2.67;;;6.90;99.90;;;;;;12306444;28;20121;-85
2021/10/22 07:08:59;;;;;;;10.07;1.90;;;6.90;99.90;;;;;;12307639;28;20053;-86
2021/10/22 07:15:04;;;;;;;13.90;2.50;;;6.90;99.90;;;;;;12307508;28;20058;-84
2021/10/22 07:21:07;;;;;;;10.10;2.38;;;7.10;99.90;;;;;;12319929;28;20057;-86
2021/10/22 07:27:09;;;;;;;11.77;2.50;;;7.00;99.90;;;;;;12329968;28;20766;-86
2021/10/22 07:33:12;;;;;;;14.88;2.30;;;7.00;99.90;;;;;;12307224;28;20063;-87
2021/10/22 07:39:15;;;;;;;11.35;2.25;;;7.20;99.90;;;;;;12341974;28;20255;-85
2021/10/22 07:45:37;;;;;;;9.25;2.00;;;7.30;99.90;;;;;;12334210;28;20880;-86
2021/10/22 07:51:39;;;;;;;9.40;2.10;;;7.40;99.90;;;;;;12311378;28;20058;-86
2021/10/22 07:57:41;;;;;;;13.32;2.08;;;7.50;99.90;;;;;;12316475;28;20128;-85
2021/10/22 08:03:42;;;;;;;11.43;1.90;;;7.70;99.90;;;;;;12317112;28;20054;-85
2021/10/22 08:09:50;;;;;;;8.73;1.90;;;7.80;99.90;;;;;;12315885;28;20061;-86
2021/10/22 08:15:52;;;;;;;10.00;2.45;;;7.90;99.90;;;;;;12346368;28;20480;-86
2021/10/22 08:28:17;;;;;;;10.10;2.67;;;8.00;99.90;;;;;;12317886;28;20051;-86
2021/10/22 08:34:19;;;;;;;11.80;2.10;;;8.10;99.90;;;;;;12348889;28;20593;-86
2021/10/22 08:40:22;;;;;;;9.68;1.73;;;8.20;99.90;;;;;;12309381;28;20352;-85
2021/10/22 08:46:24;;;;;;;16.35;2.28;;;8.30;99.90;;;;;;12344265;28;20065;-84
2021/10/22 08:52:28;;;;;;;9.15;1.83;;;8.60;99.90;;;;;;12337982;28;20101;-86
2021/10/22 08:58:33;;;;;;;7.18;1.90;;;8.50;99.90;;;;;;12306897;28;20522;-85
2021/10/22 09:04:35;;;;;;;12.25;2.25;;;8.60;99.90;;;;;;12312084;28;20183;-86
2021/10/22 09:10:37;;;;;;;10.45;1.80;;;8.70;99.90;;;;;;12314870;28;20097;-87
2021/10/22 09:16:44;;;;;;;6.60;1.52;;;8.70;99.90;;;;;;12314528;28;20073;-87
2021/10/22 09:22:54;;;;;;;6.28;1.60;;;8.90;99.90;;;;;;12313425;28;20045;-85
2021/10/22 09:29:13;;;;;;;12.48;1.95;;;8.90;99.90;;;;;;12340565;28;20451;-88
2021/10/22 09:35:19;;;;;;;7.43;2.10;;;8.90;99.90;;;;;;12326722;28;20074;-87
2021/10/22 09:41:22;;;;;;;11.80;2.00;;;9.00;99.90;;;;;;12317626;28;20076;-86
2021/10/22 09:47:24;;;;;;;11.32;2.15;;;9.30;99.90;;;;;;12344583;28;20583;-86
2021/10/22 09:53:35;;;;;;;8.27;1.77;;;9.50;99.90;;;;;;12313496;28;20158;-85
2021/10/22 09:59:37;;;;;;;9.38;2.00;;;9.30;99.90;;;;;;12334317;28;20105;-86
2021/10/22 10:05:39;;;;;;;8.63;1.50;;;9.30;99.90;;;;;;12307604;28;20122;-87
2021/10/22 10:11:42;;;;;;;8.13;1.65;;;9.30;99.90;;;;;;12306629;28;20089;-84
2021/10/22 10:17:49;;;;;;;11.52;2.00;;;9.50;99.90;;;;;;12307405;28;20110;-86
2021/10/22 10:23:54;;;;;;;12.93;2.47;;;9.50;99.90;;;;;;12311637;28;20052;-85
2021/10/22 10:29:59;;;;;;;8.20;2.10;;;9.40;99.90;;;;;;12310532;28;20105;-87
2021/10/22 10:36:01;;;;;;;10.88;1.48;;;9.40;99.90;;;;;;12301658;28;20047;-87
2021/10/22 10:42:34;;;;;;;8.52;1.70;;;9.50;99.90;;;;;;12320945;28;20050;-85
2021/10/22 10:48:39;;;;;;;7.90;1.55;;;9.50;99.90;;;;;;12328364;28;20073;-86
2021/10/22 10:54:42;;;;;;;8.05;1.70;;;9.50;99.90;;;;;;12318446;28;20101;-86
2021/10/22 11:00:45;;;;;;;10.60;2.05;;;9.60;99.90;;;;;;12297201;28;20043;-85
2021/10/22 11:06:50;;;;;;;12.35;1.60;;;9.70;99.90;;;;;;12312578;28;21034;-86
2021/10/22 11:13:14;;;;;;;10.52;2.25;;;9.70;99.90;;;;;;12310635;28;20073;-86
2021/10/22 11:19:23;;;;;;;8.90;1.40;;;9.80;99.90;;;;;;12305564;28;20101;-86
2021/10/22 11:25:27;;;;;;;7.43;1.60;;;9.90;99.90;;;;;;12313402;28;20050;-85
2021/10/22 11:31:51;;;;;;;14.03;1.97;;;9.80;99.90;;;;;;12314132;28;20538;-85
2021/10/22 11:37:53;;;;;;;10.17;2.60;;;9.90;99.90;;;;;;12349453;28;20061;-85
2021/10/22 11:44:08;;;;;;;10.75;2.83;;;9.90;99.90;;;;;;12317150;28;20051;-86
2021/10/22 11:50:24;;;;;;;9.13;2.10;;;9.90;99.90;;;;;;12313279;28;20573;-85
2021/10/22 11:56:26;;;;;;;10.15;1.80;;;10.00;99.90;;;;;;12314714;28;20496;-86
2021/10/22 12:02:30;;;;;;;10.18;2.10;;;9.90;99.90;;;;;;12317226;28;20510;-87
2021/10/22 12:08:33;;;;;;;12.57;1.75;;;9.80;99.90;;;;;;12317241;28;20054;-85
2021/10/22 12:14:38;;;;;;;11.40;1.92;;;9.80;99.90;;;;;;12309945;28;20070;-85
2021/10/22 12:20:40;;;;;;;;;;;9.90;99.90;;;;;;12313428;28;20046;-86
2021/10/22 12:26:42;;;;;;;8.68;1.50;;;9.90;99.90;;;;;;12311793;28;20322;-85
2021/10/22 12:32:48;;;;;;;7.30;1.73;;;9.80;99.90;;;;;;12297333;28;20049;-87
2021/10/22 12:38:50;;;;;;;7.80;1.35;;;9.70;99.90;;;;;;12295964;28;20129;-85
2021/10/22 12:45:30;;;;;;;6.53;1.85;;;9.60;99.90;;;;;;12304275;28;21120;-85
2021/10/22 12:51:32;;;;;;;13.75;1.58;;;9.60;99.90;;;;;;12311447;28;20054;-85
2021/10/22 12:57:34;;;;;;;12.27;1.90;;;9.50;99.90;;;;;;12315607;28;20078;-85
2021/10/22 13:03:37;;;;;;;7.65;1.88;;;9.40;99.90;;;;;;12334424;28;20057;-84
2021/10/22 13:09:55;;;;;;;8.88;2.05;;;9.10;99.90;;;;;;12316551;28;20594;-85
2021/10/22 13:22:17;;;;;;;6.32;1.13;;;9.00;99.90;;;;;;12327005;28;20042;-85
2021/10/22 13:28:27;;;;;;;4.57;1.48;;;9.00;99.90;;;;;;12308683;28;20058;-86
2021/10/22 13:34:30;;;;;;;4.72;1.10;;;8.90;99.90;;;;;;12316650;28;20089;-86
2021/10/22 13:40:32;;;;;;;4.50;0.80;;;8.80;99.90;;;;;;12315067;28;20081;-87
2021/10/22 13:46:36;;;;;;;4.57;0.90;;;8.80;99.90;;;;;;12309770;28;20058;-86
2021/10/22 13:52:38;;;;;;;2.60;0.80;;;8.80;99.90;;;;;;12311321;28;20102;-86
2021/10/22 13:58:40;;;;;;;4.38;0.85;;;8.80;99.90;;;;;;12310989;28;20100;-86
2021/10/22 14:04:42;;;;;;;5.82;1.10;;;8.80;99.90;;;;;;12308504;28;20100;-86
2021/10/22 14:10:48;;;;;;;3.92;1.10;;;8.90;99.90;;;;;;12310829;28;20097;-84
2021/10/22 14:23:36;;;;;;;4.30;0.75;;;8.90;99.90;;;;;;12311187;28;20139;-85
2021/10/22 14:29:40;;;;;;;3.58;0.63;;;9.10;99.90;;;;;;12312808;28;20090;-85
2021/10/22 14:35:42;;;;;;;3.53;0.70;;;9.10;99.90;;;;;;12302057;28;20047;-86
2021/10/22 14:41:45;;;;;;;4.10;0.80;;;9.10;99.90;;;;;;12309679;28;20047;-86
2021/10/22 14:47:55;;;;;;;3.72;1.02;;;9.10;99.90;;;;;;12308662;28;20634;-87
2021/10/22 14:53:59;;;;;;;4.38;0.90;;;9.10;99.90;;;;;;12315890;28;20057;-86
2021/10/22 15:00:01;;;;;;;4.93;0.90;;;9.30;99.90;;;;;;12328221;28;20094;-85
2021/10/22 15:06:03;;;;;;;4.93;1.10;;;9.20;99.90;;;;;;12319337;28;20105;-86
2021/10/22 15:12:05;;;;;;;7.72;1.17;;;9.30;99.90;;;;;;12323173;28;20055;-86
2021/10/22 15:18:08;;;;;;;7.43;1.05;;;9.20;99.90;;;;;;12315766;28;20054;-84
2021/10/22 15:24:10;;;;;;;6.60;1.30;;;9.20;99.90;;;;;;12350967;28;20042;-85
2021/10/22 15:30:12;;;;;;;4.80;1.30;;;9.20;99.90;;;;;;12314984;28;20042;-85
2021/10/22 15:36:18;;;;;;;4.90;1.17;;;9.20;99.90;;;;;;12314421;28;20803;-87
2021/10/22 15:42:21;;;;;;;6.63;1.40;;;9.00;99.90;;;;;;12312907;28;20078;-85
2021/10/22 15:48:23;;;;;;;11.68;1.20;;;9.00;99.90;;;;;;12318478;28;20054;-85
2021/10/22 15:54:25;;;;;;;4.60;1.10;;;9.00;99.90;;;;;;12311383;28;20063;-85
2021/10/22 16:00:28;;;;;;;5.28;1.00;;;9.10;99.90;;;;;;12317285;28;20545;-86
2021/10/22 16:06:31;;;;;;;7.22;1.30;;;9.00;99.90;;;;;;12304505;28;20053;-86
2021/10/22 16:18:35;;;;;;;8.48;1.70;;;9.00;99.90;;;;;;12296286;28;20059;-86
2021/10/22 16:24:37;;;;;;;8.55;1.70;;;9.10;99.90;;;;;;12311814;28;20066;-86
2021/10/22 16:30:39;;;;;;;6.95;1.25;;;9.10;99.90;;;;;;12305726;28;20050;-86
2021/10/22 16:36:40;;;;;;;10.52;1.65;;;9.00;99.90;;;;;;12310484;28;20050;-86
2021/10/22 16:42:43;;;;;;;8.68;1.20;;;8.90;99.90;;;;;;12313153;28;20108;-87
2021/10/22 16:48:45;;;;;;;6.80;1.50;;;8.90;99.90;;;;;;12310223;28;20077;-87
2021/10/22 16:54:47;;;;;;;7.45;1.15;;;8.80;99.90;;;;;;12347747;28;20046;-85
2021/10/22 17:00:49;;;;;;;6.43;1.40;;;8.70;99.90;;;;;;12352980;28;20098;-87
2021/10/22 17:06:52;;;;;;;6.60;1.45;;;8.70;99.90;;;;;;12313700;28;20096;-86
2021/10/22 17:12:57;;;;;;;11.07;1.63;;;8.60;99.90;;;;;;12315140;28;20129;-87
2021/10/22 17:18:59;;;;;;;12.27;1.38;;;8.60;99.90;;;;;;12339146;28;20043;-87
2021/10/22 17:25:05;;;;;;;9.38;1.83;;;8.60;99.90;;;;;;12311230;28;20069;-87
2021/10/22 17:31:07;;;;;;;9.55;1.33;;;8.40;99.90;;;;;;12319378;28;20519;-87
2021/10/22 17:37:09;;;;;;;10.07;1.23;;;8.50;99.90;;;;;;12308041;28;20054;-87
2021/10/22 17:43:11;;;;;;;10.02;1.70;;;8.40;99.90;;;;;;12308094;28;20053;-87
2021/10/22 17:49:13;;;;;;;7.93;1.13;;;8.30;99.90;;;;;;12311295;28;20055;-87
2021/10/22 17:55:16;;;;;;;6.55;1.60;;;8.20;99.90;;;;;;12338027;28;20046;-87
2021/10/22 18:01:18;;;;;;;5.00;1.13;;;8.30;99.90;;;;;;12300894;28;20579;-85
2021/10/22 18:07:20;;;;;;;9.52;1.35;;;8.10;99.90;;;;;;12312340;28;20058;-87
2021/10/22 18:13:22;;;;;;;10.93;1.73;;;8.10;99.90;;;;;;12301297;28;20138;-86
2021/10/22 18:19:25;;;;;;;9.93;1.60;;;7.90;99.90;;;;;;12313527;28;20850;-86
2021/10/22 18:25:27;;;;;;;8.43;1.80;;;7.90;99.90;;;;;;12311084;28;20404;-85
2021/10/22 18:31:29;;;;;;;7.68;1.73;;;7.90;99.90;;;;;;12311122;28;20719;-87
2021/10/22 18:37:31;;;;;;;8.43;1.50;;;7.80;99.90;;;;;;12305336;28;20055;-85
2021/10/22 18:43:33;;;;;;;12.10;1.45;;;7.80;99.90;;;;;;12308040;28;20051;-86
2021/10/22 18:49:47;;;;;;;7.95;1.42;;;7.90;99.90;;;;;;12342991;28;20142;-86
2021/10/22 18:55:49;;;;;;;7.88;1.48;;;7.70;99.90;;;;;;12311290;28;20055;-87
2021/10/22 19:01:52;;;;;;;12.80;2.05;;;7.70;99.90;;;;;;12310821;28;20051;-86
2021/10/22 19:07:57;;;;;;;17.30;2.05;;;7.50;99.90;;;;;;12302204;28;20161;-87
2021/10/22 19:14:04;;;;;;;9.38;1.80;;;7.60;99.90;;;;;;12318299;28;20078;-86
2021/10/22 19:20:08;;;;;;;10.45;1.83;;;7.50;99.90;;;;;;12308980;28;20330;-86
2021/10/22 19:26:10;;;;;;;13.93;1.80;;;7.40;99.90;;;;;;12339584;28;20137;-87
2021/10/22 19:32:12;;;;;;;7.90;1.95;;;7.40;99.90;;;;;;12309235;28;20058;-86
2021/10/22 19:38:14;;;;;;;7.53;1.45;;;7.30;99.90;;;;;;12308603;28;20121;-85
2021/10/22 19:44:17;;;;;;;8.90;1.75;;;7.20;99.90;;;;;;12313896;28;20047;-86
2021/10/22 19:50:19;;;;;;;7.82;1.40;;;7.20;99.90;;;;;;12316197;28;20062;-85
2021/10/22 19:56:23;;;;;;;8.90;1.30;;;7.10;99.90;;;;;;12313216;28;20051;-87
2021/10/22 20:02:25;;;;;;;10.43;2.20;;;7.00;99.90;;;;;;12313510;28;20074;-86
2021/10/22 20:08:27;;;;;;;13.68;2.60;;;7.00;99.90;;;;;;12313584;28;20050;-86
2021/10/22 20:14:29;;;;;;;10.25;2.25;;;7.00;99.90;;;;;;12312033;28;20113;-86
2021/10/22 20:20:31;;;;;;;10.98;1.80;;;7.00;99.90;;;;;;12314004;28;20058;-86
2021/10/22 20:26:33;;;;;;;13.23;2.33;;;6.90;99.90;;;;;;12314403;28;20636;-86
2021/10/22 20:32:35;;;;;;;11.27;2.10;;;6.90;99.90;;;;;;12315972;28;20623;-87
2021/10/22 20:38:37;;;;;;;13.50;2.60;;;6.80;99.90;;;;;;12316768;28;20053;-86
2021/10/22 20:44:40;;;;;;;17.60;2.55;;;6.80;99.90;;;;;;12315187;28;20566;-86
2021/10/22 20:57:49;;;;;;;11.27;1.73;;;6.60;99.90;;;;;;12314606;28;20138;-86
2021/10/22 21:03:26;;;;;;;11.68;1.80;;;6.50;99.90;;;;;;12309435;28;20478;-85
2021/10/22 21:09:31;;;;;;;12.82;2.08;;;6.60;99.90;;;;;;12318709;28;20050;-85
2021/10/22 21:15:33;;;;;;;13.70;2.47;;;6.70;99.90;;;;;;12310257;28;20074;-85
2021/10/22 21:21:35;;;;;;;8.90;1.85;;;6.60;99.90;;;;;;12325890;28;20583;-85
2021/10/22 21:27:37;;;;;;;18.70;2.65;;;6.50;99.90;;;;;;12313092;28;20100;-86
2021/10/22 21:33:39;;;;;;;14.10;1.95;;;6.40;99.90;;;;;;12312266;28;20108;-86
2021/10/22 21:39:41;;;;;;;11.27;2.17;;;6.30;99.90;;;;;;12314937;28;20054;-86
2021/10/22 21:45:43;;;;;;;16.85;2.28;;;6.30;99.90;;;;;;12314940;28;20063;-85
2021/10/22 21:51:45;;;;;;;14.02;2.42;;;6.20;99.90;;;;;;12309134;28;20880;-86
2021/10/22 21:57:46;;;;;;;12.23;2.08;;;6.20;99.90;;;;;;12312039;28;20047;-85
2021/10/22 22:03:48;;;;;;;14.02;2.00;;;6.20;99.90;;;;;;12307316;28;20035;-86
2021/10/22 22:09:50;;;;;;;13.60;2.00;;;6.20;99.90;;;;;;12311409;28;20584;-86
2021/10/22 22:15:54;;;;;;;14.83;2.33;;;6.20;99.90;;;;;;12306987;28;20549;-85
2021/10/22 22:21:56;;;;;;;18.52;2.33;;;6.20;99.90;;;;;;12308784;28;20164;-85
2021/10/22 22:27:59;;;;;;;16.27;2.00;;;6.30;99.90;;;;;;12313981;28;20551;-85
2021/10/22 22:34:01;;;;;;;15.00;2.53;;;6.20;99.90;;;;;;12305538;28;20051;-85
2021/10/22 22:40:04;;;;;;;10.80;2.22;;;6.20;99.90;;;;;;12309323;28;20194;-85
2021/10/22 22:46:06;;;;;;;9.60;2.00;;;6.20;99.90;;;;;;12342083;28;20054;-86
2021/10/22 22:52:08;;;;;;;11.18;2.13;;;6.20;99.90;;;;;;12327968;28;20538;-86
2021/10/22 22:58:10;;;;;;;12.45;2.20;;;6.10;99.90;;;;;;12312996;28;20076;-85
2021/10/22 23:04:12;;;;;;;10.32;2.40;;;6.10;99.90;;;;;;12338500;28;20133;-85
2021/10/22 23:10:13;;;;;;;11.52;1.83;;;6.10;99.90;;;;;;12315892;28;20113;-86
2021/10/22 23:16:16;;;;;;;13.00;2.45;;;6.20;99.90;;;;;;12327091;28;20074;-85
2021/10/22 23:22:17;;;;;;;15.00;1.95;;;6.10;99.90;;;;;;12332069;28;20062;-85
2021/10/22 23:28:23;;;;;;;12.50;2.40;;;6.00;99.90;;;;;;12320839;28;20051;-86
2021/10/22 23:34:25;;;;;;;16.40;2.20;;;6.20;99.90;;;;;;12317177;28;20043;-85
2021/10/22 23:40:27;;;;;;;13.80;2.03;;;6.20;99.90;;;;;;12315379;28;20557;-85
2021/10/22 23:46:29;;;;;;;10.85;2.40;;;6.10;99.90;;;;;;12317458;28;20205;-86
2021/10/22 23:52:32;;;;;;;13.93;1.92;;;6.00;99.90;;;;;;12314952;28;20082;-85
2021/10/22 23:58:36;;;;;;;15.32;2.25;;;6.00;99.90;;;;;;12323700;28;20074;-86
